Time,TemperatureF,DewpointF,PressureIn,WindDirection,WindDirectionDegrees,WindSpeedMPH,WindSpeedGustMPH,Humidity,HourlyPrecipIn,Conditions,Clouds,dailyrainin,SolarRadiationWatts/m^2,SoftwareType,DateUTC
2013-06-24 00:01:00,56.5,53.6,29.79,South,182,0.0,0.0,90,0.00,,,0.00,0.0,WeatherDisplay:10.37,2013-06-24 07:01:00,
2013-06-24 00:06:00,56.4,53.5,29.79,South,182,0.0,0.0,90,0.00,,,0.00,0.0,WeatherDisplay:10.37,2013-06-24 07:06:00,
2013-06-24 00:11:00,56.3,53.4,29.79,South,182,0.0,0.0,90,0.00,,,0.00,0.0,WeatherDisplay:10.37,2013-06-24 07:11:00,
2013-06-24 00:17:00,56.2,53.3,29.80,South,182,0.0,0.0,90,0.00,,,0.00,0.0,WeatherDisplay:10.37,2013-06-24 07:17:00,
2013-06-24 00:22:00,56.2,53.6,29.80,South,182,0.0,0.0,91,0.00,,,0.00,0.0,WeatherDisplay:10.37,2013-06-24 07:22:00,
2013-06-24 00:27:00,56.1,53.5,29.79,South,182,0.0,0.0,91,0.00,,,0.00,0.0,WeatherDisplay:10.37,2013-06-24 07:27:00,
2013-06-24 00:32:00,56.0,53.4,29.79,South,182,0.0,0.0,91,0.00,,,0.00,0.0,WeatherDisplay:10.37,2013-06-24 07:32:00,
2013-06-24 00:37:00,56.0,53.4,29.79,South,182,0.0,0.0,91,0.00,,,0.00,0.0,WeatherDisplay:10.37,2013-06-24 07:37:00,
2013-06-24 00:42:00,56.0,53.4,29.79,South,182,0.0,0.0,91,0.00,,,0.00,0.0,WeatherDisplay:10.37,2013-06-24 07:42:00,
2013-06-24 00:47:00,56.1,53.5,29.79,South,182,1.9,3.5,91,0.00,,,0.00,0.0,WeatherDisplay:10.37,2013-06-24 07:47:00,
2013-06-24 00:52:00,56.1,53.5,29.79,South,182,0.0,0.0,91,0.00,,,0.00,0.0,WeatherDisplay:10.37,2013-06-24 07:52:00,
2013-06-24 00:57:00,56.0,53.4,29.79,South,182,0.0,0.0,91,0.00,,,0.00,0.0,WeatherDisplay:10.37,2013-06-24 07:57:00,
2013-06-24 01:04:00,56.1,53.5,29.78,South,182,0.0,1.2,91,0.00,,,0.00,0.0,WeatherDisplay:10.37,2013-06-24 08:04:00,
2013-06-24 01:09:00,56.0,53.4,29.78,South,182,0.0,0.0,91,0.00,,,0.00,0.0,WeatherDisplay:10.37,2013-06-24 08:09:00,
2013-06-24 01:14:00,56.0,53.4,29.78,South,182,0.0,0.0,91,0.00,,,0.00,0.0,WeatherDisplay:10.37,2013-06-24 08:14:00,
2013-06-24 01:20:00,55.9,53.3,29.78,South,182,0.0,0.0,91,0.00,,,0.00,0.0,WeatherDisplay:10.37,2013-06-24 08:20:00,
2013-06-24 01:25:00,55.8,53.2,29.78,South,182,0.0,0.0,91,0.00,,,0.00,0.0,WeatherDisplay:10.37,2013-06-24 08:25:00,
2013-06-24 01:30:00,55.8,53.2,29.78,South,182,0.0,0.0,91,0.00,,,0.00,0.0,WeatherDisplay:10.37,2013-06-24 08:30:00,
2013-06-24 01:35:00,55.8,53.2,29.78,South,182,0.0,0.0,91,0.00,,,0.00,0.0,WeatherDisplay:10.37,2013-06-24 08:35:00,
2013-06-24 01:40:00,55.8,53.2,29.78,South,182,0.0,0.0,91,0.00,,,0.00,0.0,WeatherDisplay:10.37,2013-06-24 08:40:00,
2013-06-24 01:45:00,55.7,53.1,29.78,South,182,0.0,0.0,91,0.00,,,0.00,0.0,WeatherDisplay:10.37,2013-06-24 08:45:00,
2013-06-24 01:50:00,55.8,53.2,29.78,South,182,0.0,0.0,91,0.00,,,0.00,0.0,WeatherDisplay:10.37,2013-06-24 08:50:00,
2013-06-24 01:55:00,55.8,53.2,29.78,South,182,0.0,0.0,91,0.00,,,0.00,0.0,WeatherDisplay:10.37,2013-06-24 08:55:00,
2013-06-24 02:00:00,55.9,53.3,29.78,South,182,0.0,0.0,91,0.00,,,0.00,0.0,WeatherDisplay:10.37,2013-06-24 09:00:00,
2013-06-24 02:05:00,55.9,53.3,29.78,South,182,0.0,0.0,91,0.00,,,0.00,0.0,WeatherDisplay:10.37,2013-06-24 09:05:00,
2013-06-24 02:10:00,56.0,53.4,29.78,South,182,0.0,0.0,91,0.00,,,0.00,0.0,WeatherDisplay:10.37,2013-06-24 09:10:00,
2013-06-24 02:15:00,56.1,53.5,29.78,South,182,0.0,0.0,91,0.00,,,0.00,0.0,WeatherDisplay:10.37,2013-06-24 09:15:00,
2013-06-24 02:20:00,56.0,53.4,29.78,South,182,0.0,0.0,91,0.00,,,0.00,0.0,WeatherDisplay:10.37,2013-06-24 09:20:00,
2013-06-24 02:26:00,56.0,53.4,29.78,South,182,0.0,0.0,91,0.00,,,0.00,0.0,WeatherDisplay:10.37,2013-06-24 09:26:00,
2013-06-24 02:31:00,55.9,53.0,29.77,South,182,0.0,0.0,90,0.00,,,0.00,0.0,WeatherDisplay:10.37,2013-06-24 09:31:00,
2013-06-24 02:36:00,55.9,53.0,29.78,South,182,0.0,0.0,90,0.00,,,0.00,0.0,WeatherDisplay:10.37,2013-06-24 09:36:00,
2013-06-24 02:42:00,55.9,53.0,29.78,South,182,0.0,0.0,90,0.00,,,0.00,0.0,WeatherDisplay:10.37,2013-06-24 09:42:00,
2013-06-24 02:47:00,55.9,53.0,29.77,South,182,0.0,0.0,90,0.00,,,0.00,0.0,WeatherDisplay:10.37,2013-06-24 09:47:00,
2013-06-24 02:53:00,55.9,53.0,29.77,South,182,0.0,0.0,90,0.00,,,0.00,0.0,WeatherDisplay:10.37,2013-06-24 09:53:00,
2013-06-24 02:58:00,55.9,53.0,29.77,South,182,0.0,0.0,90,0.00,,,0.00,0.0,WeatherDisplay:10.37,2013-06-24 09:58:00,
2013-06-24 03:03:00,55.8,52.9,29.77,South,182,0.0,0.0,90,0.00,,,0.00,0.0,WeatherDisplay:10.37,2013-06-24 10:03:00,
2013-06-24 03:08:00,55.7,52.8,29.77,South,182,1.0,2.3,90,0.00,,,0.00,0.0,WeatherDisplay:10.37,2013-06-24 10:08:00,
2013-06-24 03:13:00,55.7,52.8,29.77,South,182,0.0,0.0,90,0.00,,,0.00,0.0,WeatherDisplay:10.37,2013-06-24 10:13:00,
2013-06-24 03:18:00,55.7,52.8,29.77,South,182,0.0,0.0,90,0.00,,,0.00,0.0,WeatherDisplay:10.37,2013-06-24 10:18:00,
2013-06-24 03:23:00,55.8,52.9,29.77,South,182,0.0,0.0,90,0.00,,,0.00,0.0,WeatherDisplay:10.37,2013-06-24 10:23:00,
2013-06-24 03:28:00,55.8,52.9,29.77,South,182,0.0,0.0,90,0.00,,,0.00,0.0,WeatherDisplay:10.37,2013-06-24 10:28:00,
2013-06-24 03:33:00,55.8,52.9,29.77,South,182,0.0,0.0,90,0.00,,,0.00,0.0,WeatherDisplay:10.37,2013-06-24 10:33:00,
2013-06-24 03:38:00,55.9,53.0,29.77,South,182,0.0,0.0,90,0.00,,,0.00,0.0,WeatherDisplay:10.37,2013-06-24 10:38:00,
2013-06-24 03:44:00,55.8,52.9,29.77,South,182,0.0,0.0,90,0.00,,,0.00,0.0,WeatherDisplay:10.37,2013-06-24 10:44:00,
2013-06-24 03:49:00,55.8,52.9,29.77,South,182,0.0,0.0,90,0.00,,,0.00,0.0,WeatherDisplay:10.37,2013-06-24 10:49:00,
2013-06-24 03:54:00,55.8,52.9,29.77,South,182,0.0,0.0,90,0.00,,,0.00,0.0,WeatherDisplay:10.37,2013-06-24 10:54:00,
2013-06-24 03:59:00,55.8,52.9,29.77,South,182,0.0,0.0,90,0.00,,,0.00,0.0,WeatherDisplay:10.37,2013-06-24 10:59:00,
2013-06-24 04:04:00,55.8,52.9,29.77,South,182,0.0,0.0,90,0.00,,,0.00,0.0,WeatherDisplay:10.37,2013-06-24 11:04:00,
2013-06-24 04:09:00,55.8,52.9,29.77,South,182,0.0,0.0,90,0.00,,,0.00,0.0,WeatherDisplay:10.37,2013-06-24 11:09:00,
2013-06-24 04:15:00,55.8,52.9,29.77,South,182,0.0,0.0,90,0.00,,,0.00,0.0,WeatherDisplay:10.37,2013-06-24 11:15:00,
2013-06-24 04:20:00,55.8,52.9,29.77,South,182,0.0,0.0,90,0.00,,,0.00,0.0,WeatherDisplay:10.37,2013-06-24 11:20:00,
2013-06-24 04:25:00,55.6,52.7,29.77,South,182,0.0,0.0,90,0.00,,,0.00,0.0,WeatherDisplay:10.37,2013-06-24 11:25:00,
2013-06-24 04:30:00,55.6,52.7,29.78,South,182,0.0,0.0,90,0.00,,,0.00,0.0,WeatherDisplay:10.37,2013-06-24 11:30:00,
2013-06-24 04:35:00,55.6,52.7,29.78,South,182,0.0,0.0,90,0.00,,,0.00,0.0,WeatherDisplay:10.37,2013-06-24 11:35:00,
2013-06-24 04:40:00,55.6,52.7,29.78,South,182,0.0,0.0,90,0.00,,,0.00,0.0,WeatherDisplay:10.37,2013-06-24 11:40:00,
2013-06-24 04:45:00,55.5,52.9,29.78,South,182,0.0,0.0,91,0.00,,,0.00,0.0,WeatherDisplay:10.37,2013-06-24 11:45:00,
2013-06-24 04:52:00,55.6,53.0,29.78,South,182,0.0,0.0,91,0.00,,,0.00,0.0,WeatherDisplay:10.37,2013-06-24 11:52:00,
2013-06-24 04:58:00,55.7,53.1,29.79,South,182,0.0,0.0,91,0.00,,,0.00,0.0,WeatherDisplay:10.37,2013-06-24 11:58:00,
2013-06-24 05:03:00,55.8,52.9,29.78,South,182,0.0,0.0,90,0.00,,,0.00,0.0,WeatherDisplay:10.37,2013-06-24 12:03:00,
2013-06-24 05:08:00,56.0,53.1,29.78,South,182,0.0,0.0,90,0.00,,,0.00,0.0,WeatherDisplay:10.37,2013-06-24 12:08:00,
2013-06-24 05:13:00,56.0,53.1,29.78,South,182,0.0,0.0,90,0.00,,,0.00,0.0,WeatherDisplay:10.37,2013-06-24 12:13:00,
2013-06-24 05:19:00,55.8,52.9,29.79,South,182,0.0,0.0,90,0.00,,,0.00,0.0,WeatherDisplay:10.37,2013-06-24 12:19:00,
2013-06-24 05:24:00,55.5,52.6,29.79,South,182,0.0,0.0,90,0.00,,,0.00,0.0,WeatherDisplay:10.37,2013-06-24 12:24:00,
2013-06-24 05:31:00,55.1,52.2,29.79,South,182,0.0,0.0,90,0.00,,,0.00,0.0,WeatherDisplay:10.37,2013-06-24 12:31:00,
2013-06-24 05:37:00,55.0,52.1,29.79,South,182,0.0,0.0,90,0.00,,,0.00,0.0,WeatherDisplay:10.37,2013-06-24 12:37:00,
2013-06-24 05:43:00,55.0,52.1,29.79,South,182,0.0,0.0,90,0.00,,,0.00,0.0,WeatherDisplay:10.37,2013-06-24 12:43:00,
2013-06-24 05:50:00,55.0,52.1,29.80,South,182,0.0,0.0,90,0.00,,,0.00,0.0,WeatherDisplay:10.37,2013-06-24 12:50:00,
2013-06-24 05:55:00,55.2,52.3,29.80,South,182,0.0,0.0,90,0.00,,,0.00,0.0,WeatherDisplay:10.37,2013-06-24 12:55:00,
2013-06-24 06:00:00,55.3,52.7,29.80,South,182,0.0,0.0,91,0.00,,,0.00,0.0,WeatherDisplay:10.37,2013-06-24 13:00:00,
2013-06-24 06:05:00,55.3,52.4,29.80,South,182,0.0,0.0,90,0.00,,,0.00,0.0,WeatherDisplay:10.37,2013-06-24 13:05:00,
2013-06-24 06:10:00,55.2,52.3,29.80,South,182,0.0,0.0,90,0.00,,,0.00,0.0,WeatherDisplay:10.37,2013-06-24 13:10:00,
2013-06-24 06:15:00,54.9,52.0,29.80,South,182,0.0,0.0,90,0.00,,,0.00,5.0,WeatherDisplay:10.37,2013-06-24 13:15:00,
2013-06-24 06:20:00,54.8,51.9,29.81,South,182,0.0,0.0,90,0.00,,,0.00,12.0,WeatherDisplay:10.37,2013-06-24 13:20:00,
2013-06-24 06:26:00,54.7,51.8,29.80,South,182,0.0,0.0,90,0.00,CLR,,0.00,14.0,WeatherDisplay:10.37,2013-06-24 13:26:00,
2013-06-24 06:32:00,54.8,51.9,29.80,South,182,0.0,0.0,90,0.00,CLR,,0.00,21.0,WeatherDisplay:10.37,2013-06-24 13:32:00,
2013-06-24 06:37:00,54.9,52.0,29.81,South,182,0.0,0.0,90,0.00,CLR,,0.00,37.0,WeatherDisplay:10.37,2013-06-24 13:37:00,
2013-06-24 06:43:00,55.1,52.2,29.81,South,182,0.0,0.0,90,0.00,CLR,,0.00,56.0,WeatherDisplay:10.37,2013-06-24 13:43:00,
2013-06-24 06:48:00,55.4,52.5,29.81,South,182,0.0,0.0,90,0.00,CLR,,0.00,39.0,WeatherDisplay:10.37,2013-06-24 13:48:00,
2013-06-24 06:54:00,55.4,52.5,29.81,South,182,0.8,3.5,90,0.00,BKN,,0.00,25.0,WeatherDisplay:10.37,2013-06-24 13:54:00,
2013-06-24 06:59:00,55.5,52.6,29.81,South,182,0.0,0.0,90,0.00,BKN,,0.00,25.0,WeatherDisplay:10.37,2013-06-24 13:59:00,
2013-06-24 07:04:00,55.5,52.3,29.81,South,182,0.0,0.0,89,0.00,BKN,,0.00,28.0,WeatherDisplay:10.37,2013-06-24 14:04:00,
2013-06-24 07:10:00,55.5,52.6,29.81,South,182,0.0,0.0,90,0.00,BKN,,0.00,37.0,WeatherDisplay:10.37,2013-06-24 14:10:00,
2013-06-24 07:15:00,55.6,52.7,29.81,South,182,0.2,2.3,90,0.00,BKN,,0.00,35.0,WeatherDisplay:10.37,2013-06-24 14:15:00,
2013-06-24 07:20:00,55.6,52.7,29.81,South,182,0.6,2.3,90,0.00,BKN,,0.00,35.0,WeatherDisplay:10.37,2013-06-24 14:20:00,
2013-06-24 07:25:00,55.6,52.7,29.81,South,182,0.0,0.0,90,0.00,BKN,,0.00,42.0,WeatherDisplay:10.37,2013-06-24 14:25:00,
2013-06-24 07:31:00,55.6,52.7,29.81,South,182,0.0,0.0,90,0.00,BKN,,0.00,56.0,WeatherDisplay:10.37,2013-06-24 14:31:00,
2013-06-24 07:36:00,55.9,53.0,29.81,South,182,0.0,1.2,90,0.00,BKN,,0.00,72.0,WeatherDisplay:10.37,2013-06-24 14:36:00,
2013-06-24 07:41:00,55.9,53.0,29.81,South,182,0.0,0.0,90,0.00,BKN,,0.00,88.0,WeatherDisplay:10.37,2013-06-24 14:41:00,
2013-06-24 07:46:00,55.7,52.8,29.81,South,182,0.0,0.0,90,0.00,BKN,,0.00,84.0,WeatherDisplay:10.37,2013-06-24 14:46:00,
2013-06-24 07:51:00,55.7,52.8,29.81,South,182,0.1,0.0,90,0.00,BKN,,0.00,81.0,WeatherDisplay:10.37,2013-06-24 14:51:00,
2013-06-24 07:56:00,55.5,52.6,29.81,South,182,0.4,1.2,90,0.00,BKN,,0.00,97.0,WeatherDisplay:10.37,2013-06-24 14:56:00,
2013-06-24 08:01:00,55.5,52.6,29.81,South,182,0.5,1.2,90,0.00,SCT,,0.00,128.0,WeatherDisplay:10.37,2013-06-24 15:01:00,
2013-06-24 08:06:00,55.7,52.8,29.81,South,182,0.0,0.0,90,0.00,SCT,,0.00,151.0,WeatherDisplay:10.37,2013-06-24 15:06:00,
2013-06-24 08:11:00,55.8,52.9,29.81,South,182,0.0,0.0,90,0.00,SCT,,0.00,158.0,WeatherDisplay:10.37,2013-06-24 15:11:00,
2013-06-24 08:16:00,56.6,53.7,29.81,South,182,0.0,0.0,90,0.00,SCT,,0.00,174.0,WeatherDisplay:10.37,2013-06-24 15:16:00,
2013-06-24 08:21:00,57.0,54.1,29.82,South,182,0.0,1.2,90,0.00,BKN,,0.00,120.0,WeatherDisplay:10.37,2013-06-24 15:21:00,
2013-06-24 08:27:00,57.0,53.8,29.82,South,182,0.0,0.0,89,0.00,BKN,,0.00,127.0,WeatherDisplay:10.37,2013-06-24 15:27:00,
2013-06-24 08:32:00,57.6,54.4,29.82,South,182,0.0,0.0,89,0.00,BKN,,0.00,142.0,WeatherDisplay:10.37,2013-06-24 15:32:00,
2013-06-24 08:37:00,57.9,54.4,29.83,South,182,0.1,1.2,88,0.00,BKN,,0.00,130.0,WeatherDisplay:10.37,2013-06-24 15:37:00,
2013-06-24 08:42:00,58.0,54.2,29.83,South,182,0.0,0.0,87,0.00,BKN,,0.00,113.0,WeatherDisplay:10.37,2013-06-24 15:42:00,
2013-06-24 08:47:00,58.2,54.3,29.83,South,182,0.0,0.0,87,0.00,BKN,,0.00,121.0,WeatherDisplay:10.37,2013-06-24 15:47:00,
2013-06-24 08:52:00,57.9,53.7,29.83,NNE,13,2.8,4.6,86,0.00,BKN,,0.00,128.0,WeatherDisplay:10.37,2013-06-24 15:52:00,
2013-06-24 08:57:00,58.0,53.8,29.83,NNE,15,1.6,3.5,86,0.00,BKN,,0.00,169.0,WeatherDisplay:10.37,2013-06-24 15:57:00,
2013-06-24 09:02:00,58.1,53.9,29.83,NNE,15,0.4,1.2,86,0.00,BKN,,0.00,156.0,WeatherDisplay:10.37,2013-06-24 16:02:00,
2013-06-24 09:08:00,58.1,53.9,29.83,ENE,72,1.1,2.3,86,0.00,BKN,,0.00,216.0,WeatherDisplay:10.37,2013-06-24 16:08:00,
2013-06-24 09:13:00,58.2,54.0,29.82,East,79,1.3,3.5,86,0.00,BKN,,0.00,209.0,WeatherDisplay:10.37,2013-06-24 16:13:00,
2013-06-24 09:18:00,57.9,53.7,29.82,South,177,1.1,3.5,86,0.00,BKN,,0.00,162.0,WeatherDisplay:10.37,2013-06-24 16:18:00,
2013-06-24 09:23:00,57.7,53.5,29.82,SSE,167,1.2,2.3,86,0.00,BKN,,0.00,141.0,WeatherDisplay:10.37,2013-06-24 16:23:00,
2013-06-24 09:28:00,57.9,53.7,29.83,SSE,165,2.5,3.5,86,0.00,BKN,,0.00,139.0,WeatherDisplay:10.37,2013-06-24 16:28:00,
2013-06-24 09:33:00,57.9,53.7,29.83,SSE,157,1.3,2.3,86,0.00,BKN,,0.00,190.0,WeatherDisplay:10.37,2013-06-24 16:33:00,
2013-06-24 09:38:00,58.0,53.8,29.83,SSE,153,1.7,3.5,86,0.00,BKN,,0.00,135.0,WeatherDisplay:10.37,2013-06-24 16:38:00,
2013-06-24 09:44:00,58.4,53.9,29.84,SSE,153,0.0,0.0,85,0.00,BKN,,0.00,114.0,WeatherDisplay:10.37,2013-06-24 16:44:00,
2013-06-24 09:49:00,58.4,53.6,29.84,SE,146,1.5,3.5,84,0.00,BKN,,0.00,199.0,WeatherDisplay:10.37,2013-06-24 16:49:00,
2013-06-24 09:55:00,58.3,53.8,29.84,SE,145,2.5,3.5,85,0.00,BKN,,0.00,179.0,WeatherDisplay:10.37,2013-06-24 16:55:00,
2013-06-24 10:00:00,58.7,54.2,29.84,SE,146,0.1,1.2,85,0.00,BKN,,0.00,181.0,WeatherDisplay:10.37,2013-06-24 17:00:00,
2013-06-24 10:05:00,59.1,54.3,29.84,NE,37,3.5,4.6,84,0.00,BKN,,0.00,149.0,WeatherDisplay:10.37,2013-06-24 17:05:00,
2013-06-24 10:10:00,59.1,54.3,29.84,NE,36,1.6,3.5,84,0.00,BKN,,0.00,116.0,WeatherDisplay:10.37,2013-06-24 17:10:00,
2013-06-24 10:15:00,59.1,54.3,29.83,NE,36,2.4,3.5,84,0.00,BKN,,0.00,188.0,WeatherDisplay:10.37,2013-06-24 17:15:00,
2013-06-24 10:21:00,59.3,54.1,29.83,NE,36,0.2,1.2,83,0.00,BKN,,0.00,213.0,WeatherDisplay:10.37,2013-06-24 17:21:00,
2013-06-24 10:26:00,59.5,54.3,29.83,NE,36,0.1,1.2,83,0.00,BKN,,0.00,199.0,WeatherDisplay:10.37,2013-06-24 17:26:00,
2013-06-24 10:32:00,59.8,54.3,29.84,NE,36,0.0,1.2,82,0.00,BKN,,0.00,185.0,WeatherDisplay:10.37,2013-06-24 17:32:00,
2013-06-24 10:38:00,60.3,54.8,29.84,NE,36,0.0,1.2,82,0.00,BKN,,0.00,234.0,WeatherDisplay:10.37,2013-06-24 17:38:00,
2013-06-24 10:44:00,60.6,54.4,29.85,SSE,148,2.6,3.5,80,0.00,BKN,,0.00,257.0,WeatherDisplay:10.37,2013-06-24 17:44:00,
2013-06-24 10:49:00,61.1,54.5,29.84,SSE,163,1.8,2.3,79,0.00,BKN,,0.00,316.0,WeatherDisplay:10.37,2013-06-24 17:49:00,
2013-06-24 10:54:00,61.1,54.5,29.84,South,188,3.2,5.8,79,0.00,BKN,,0.00,309.0,WeatherDisplay:10.37,2013-06-24 17:54:00,
2013-06-24 11:01:00,61.2,54.3,29.85,South,171,1.0,3.5,78,0.00,BKN,,0.00,316.0,WeatherDisplay:10.37,2013-06-24 18:01:00,
2013-06-24 11:06:00,61.7,54.8,29.85,South,171,0.1,1.2,78,0.00,BKN,,0.00,357.0,WeatherDisplay:10.37,2013-06-24 18:06:00,
2013-06-24 11:11:00,62.3,55.4,29.85,SSW,198,0.0,2.3,78,0.00,BKN,,0.00,353.0,WeatherDisplay:10.37,2013-06-24 18:11:00,
2013-06-24 11:16:00,62.8,55.1,29.85,SE,140,1.4,3.5,76,0.00,BKN,,0.00,287.0,WeatherDisplay:10.37,2013-06-24 18:16:00,
2013-06-24 11:21:00,62.5,54.5,29.85,East,98,0.5,2.3,75,0.00,BKN,,0.00,239.0,WeatherDisplay:10.37,2013-06-24 18:21:00,
2013-06-24 11:26:00,62.8,54.8,29.85,ESE,105,0.3,2.3,75,0.00,BKN,,0.00,167.0,WeatherDisplay:10.37,2013-06-24 18:26:00,
2013-06-24 11:31:00,62.5,54.8,29.86,ESE,105,0.0,1.2,76,0.00,BKN,,0.00,195.0,WeatherDisplay:10.37,2013-06-24 18:31:00,
2013-06-24 11:36:00,62.4,54.7,29.86,SE,129,0.7,3.5,76,0.00,BKN,,0.00,197.0,WeatherDisplay:10.37,2013-06-24 18:36:00,
2013-06-24 11:42:00,62.1,54.1,29.85,SSW,192,4.0,4.6,75,0.00,BKN,,0.00,225.0,WeatherDisplay:10.37,2013-06-24 18:42:00,
2013-06-24 11:47:00,61.9,53.9,29.85,SSW,200,3.1,5.0,75,0.00,BKN,,0.00,209.0,WeatherDisplay:10.37,2013-06-24 18:47:00,
2013-06-24 11:52:00,62.0,54.0,29.85,South,191,1.6,5.8,75,0.00,BKN,,0.00,227.0,WeatherDisplay:10.37,2013-06-24 18:52:00,
2013-06-24 11:58:00,62.1,54.1,29.85,South,186,4.5,5.0,75,0.00,BKN,,0.00,193.0,WeatherDisplay:10.37,2013-06-24 18:58:00,
2013-06-24 12:03:00,61.9,53.9,29.85,SSW,202,3.2,6.9,75,0.00,BKN,,0.00,200.0,WeatherDisplay:10.37,2013-06-24 19:03:00,
2013-06-24 12:09:00,62.0,54.0,29.85,SSW,207,4.5,4.6,75,0.00,BKN,,0.00,213.0,WeatherDisplay:10.37,2013-06-24 19:09:00,
2013-06-24 12:14:00,61.9,54.2,29.85,South,188,1.6,5.8,76,0.00,BKN,,0.00,186.0,WeatherDisplay:10.37,2013-06-24 19:14:00,
2013-06-24 12:20:00,61.8,54.5,29.85,South,188,6.4,11.5,77,0.00,BKN,,0.00,209.0,WeatherDisplay:10.37,2013-06-24 19:20:00,
2013-06-24 12:25:00,61.6,54.7,29.85,South,187,7.8,9.2,78,0.00,BKN,,0.00,216.0,WeatherDisplay:10.37,2013-06-24 19:25:00,
2013-06-24 12:30:00,61.2,54.6,29.85,South,187,5.8,6.9,79,0.00,BKN,,0.00,232.0,WeatherDisplay:10.37,2013-06-24 19:30:00,
2013-06-24 12:36:00,61.0,54.5,29.85,South,183,5.0,9.0,79,0.00,BKN,,0.00,258.0,WeatherDisplay:10.37,2013-06-24 19:36:00,
2013-06-24 12:42:00,61.3,54.7,29.85,South,183,2.8,6.9,79,0.00,BKN,,0.00,264.0,WeatherDisplay:10.37,2013-06-24 19:42:00,
2013-06-24 12:47:00,61.5,54.9,29.86,SSE,155,2.5,4.6,79,0.00,BKN,,0.00,244.0,WeatherDisplay:10.37,2013-06-24 19:47:00,
2013-06-24 12:56:00,61.8,54.9,29.86,South,190,3.0,12.0,78,0.00,BKN,,0.00,209.0,WeatherDisplay:10.37,2013-06-24 19:56:00,
2013-06-24 13:01:00,61.8,54.9,29.86,SSE,159,5.7,9.2,78,0.00,BKN,,0.00,192.0,WeatherDisplay:10.37,2013-06-24 20:01:00,
2013-06-24 13:06:00,61.6,55.0,29.86,South,175,4.6,5.8,79,0.00,BKN,,0.00,188.0,WeatherDisplay:10.37,2013-06-24 20:06:00,
2013-06-24 13:11:00,61.1,54.9,29.86,SSW,205,5.4,9.2,80,0.00,BKN,,0.00,195.0,WeatherDisplay:10.37,2013-06-24 20:11:00,
2013-06-24 13:16:00,60.6,55.1,29.86,SSW,206,3.4,3.5,82,0.00,BKN,,0.00,287.0,WeatherDisplay:10.37,2013-06-24 20:16:00,
2013-06-24 13:22:00,60.4,55.5,29.86,South,184,4.6,7.0,84,0.01,RA,,0.01,227.0,WeatherDisplay:10.37,2013-06-24 20:22:00,
2013-06-24 13:27:00,60.2,55.3,29.86,SSW,204,7.3,10.4,84,0.01,RA,,0.01,237.0,WeatherDisplay:10.37,2013-06-24 20:27:00,
2013-06-24 13:32:00,60.2,55.3,29.85,South,191,6.0,9.2,84,0.01,BKN,,0.01,200.0,WeatherDisplay:10.37,2013-06-24 20:32:00,
2013-06-24 13:37:00,60.2,55.3,29.85,SSW,195,5.8,11.5,84,0.01,BKN,,0.01,292.0,WeatherDisplay:10.37,2013-06-24 20:37:00,
2013-06-24 13:42:00,60.2,55.3,29.86,South,183,6.4,9.2,84,0.01,BKN,,0.01,218.0,WeatherDisplay:10.37,2013-06-24 20:42:00,
2013-06-24 13:48:00,60.0,55.5,29.86,South,188,4.7,11.5,85,0.01,BKN,,0.01,250.0,WeatherDisplay:10.37,2013-06-24 20:48:00,
2013-06-24 13:54:00,59.9,55.4,29.86,SSW,205,7.1,8.1,85,0.01,BKN,,0.01,200.0,WeatherDisplay:10.37,2013-06-24 20:54:00,
2013-06-24 13:59:00,59.8,55.3,29.86,South,184,6.3,9.2,85,0.01,BKN,,0.01,213.0,WeatherDisplay:10.37,2013-06-24 20:59:00,
2013-06-24 14:04:00,59.6,55.1,29.86,SSW,194,5.9,10.4,85,0.01,BKN,,0.01,214.0,WeatherDisplay:10.37,2013-06-24 21:04:00,
2013-06-24 14:09:00,59.7,55.2,29.86,SSW,202,6.6,9.2,85,0.01,BKN,,0.01,234.0,WeatherDisplay:10.37,2013-06-24 21:09:00,
2013-06-24 14:14:00,59.7,55.2,29.86,SSW,202,6.3,9.2,85,0.01,BKN,,0.01,192.0,WeatherDisplay:10.37,2013-06-24 21:14:00,
2013-06-24 14:19:00,59.6,55.1,29.86,South,178,6.0,8.1,85,0.01,BKN,,0.01,176.0,WeatherDisplay:10.37,2013-06-24 21:19:00,
2013-06-24 14:25:00,59.2,55.0,29.86,SSW,201,5.0,6.9,86,0.00,BKN,,0.01,213.0,WeatherDisplay:10.37,2013-06-24 21:25:00,
2013-06-24 14:30:00,59.2,55.3,29.86,SSW,211,4.2,8.1,87,0.00,BKN,,0.01,185.0,WeatherDisplay:10.37,2013-06-24 21:30:00,
2013-06-24 14:37:00,59.2,55.3,29.86,South,183,4.7,10.4,87,0.01,RA,,0.02,202.0,WeatherDisplay:10.37,2013-06-24 21:37:00,
2013-06-24 14:42:00,59.1,55.2,29.86,South,185,5.4,5.8,87,0.01,BKN,,0.02,163.0,WeatherDisplay:10.37,2013-06-24 21:42:00,
2013-06-24 14:47:00,58.9,55.0,29.86,South,187,5.4,10.4,87,0.01,BKN,,0.02,183.0,WeatherDisplay:10.37,2013-06-24 21:47:00,
2013-06-24 14:52:00,59.0,55.1,29.86,South,189,5.6,5.8,87,0.01,BKN,,0.02,172.0,WeatherDisplay:10.37,2013-06-24 21:52:00,
2013-06-24 14:57:00,58.8,54.9,29.86,South,183,7.2,8.1,87,0.01,BKN,,0.02,162.0,WeatherDisplay:10.37,2013-06-24 21:57:00,
2013-06-24 15:02:00,58.7,54.8,29.86,SSW,192,4.5,9.2,87,0.01,BKN,,0.02,163.0,WeatherDisplay:10.37,2013-06-24 22:02:00,
2013-06-24 15:07:00,58.6,54.7,29.86,South,190,7.1,11.5,87,0.01,BKN,,0.02,190.0,WeatherDisplay:10.37,2013-06-24 22:07:00,
2013-06-24 15:13:00,58.6,54.7,29.86,SW,221,6.4,10.4,87,0.01,BKN,,0.02,186.0,WeatherDisplay:10.37,2013-06-24 22:13:00,
2013-06-24 15:18:00,58.6,54.7,29.86,SSW,205,5.0,6.9,87,0.01,BKN,,0.02,169.0,WeatherDisplay:10.37,2013-06-24 22:18:00,
2013-06-24 15:23:00,58.5,54.6,29.85,SSW,195,5.4,9.2,87,0.01,BKN,,0.02,171.0,WeatherDisplay:10.37,2013-06-24 22:23:00,
2013-06-24 15:28:00,58.5,54.6,29.85,SSW,196,9.8,15.0,87,0.01,BKN,,0.02,172.0,WeatherDisplay:10.37,2013-06-24 22:28:00,
2013-06-24 15:33:00,58.4,54.9,29.85,South,183,6.0,11.5,88,0.00,BKN,,0.02,188.0,WeatherDisplay:10.37,2013-06-24 22:33:00,
2013-06-24 15:38:00,58.4,54.9,29.85,South,180,6.1,11.5,88,0.00,BKN,,0.02,213.0,WeatherDisplay:10.37,2013-06-24 22:38:00,
2013-06-24 15:43:00,58.4,54.9,29.85,South,186,6.9,11.5,88,0.00,BKN,,0.02,193.0,WeatherDisplay:10.37,2013-06-24 22:43:00,
2013-06-24 15:48:00,58.5,55.0,29.85,South,188,5.6,11.5,88,0.00,BKN,,0.02,162.0,WeatherDisplay:10.37,2013-06-24 22:48:00,
2013-06-24 15:53:00,58.6,55.1,29.86,South,190,6.5,9.2,88,0.00,BKN,,0.02,142.0,WeatherDisplay:10.37,2013-06-24 22:53:00,
2013-06-24 15:58:00,58.6,55.1,29.86,South,188,5.7,8.1,88,0.00,BKN,,0.02,139.0,WeatherDisplay:10.37,2013-06-24 22:58:00,
2013-06-24 16:06:00,58.5,55.0,29.86,South,182,5.0,12.0,88,0.00,BKN,,0.02,128.0,WeatherDisplay:10.37,2013-06-24 23:06:00,
2013-06-24 16:12:00,58.5,55.0,29.86,SSW,198,2.5,4.6,88,0.00,BKN,,0.02,118.0,WeatherDisplay:10.37,2013-06-24 23:12:00,
2013-06-24 16:17:00,58.5,55.0,29.86,SSE,150,0.4,3.5,88,0.00,BKN,,0.02,109.0,WeatherDisplay:10.37,2013-06-24 23:17:00,
2013-06-24 16:23:00,58.5,55.0,29.86,SSW,192,4.9,9.2,88,0.00,BKN,,0.02,142.0,WeatherDisplay:10.37,2013-06-24 23:23:00,
2013-06-24 16:28:00,58.6,55.4,29.86,South,186,1.0,5.8,89,0.01,RA,,0.03,227.0,WeatherDisplay:10.37,2013-06-24 23:28:00,
2013-06-24 16:33:00,58.8,55.6,29.86,SSE,153,2.5,4.6,89,0.01,RA,,0.03,200.0,WeatherDisplay:10.37,2013-06-24 23:33:00,
2013-06-24 16:38:00,58.7,55.2,29.86,SSW,200,7.0,12.7,88,0.01,BKN,,0.03,197.0,WeatherDisplay:10.37,2013-06-24 23:38:00,
2013-06-24 16:45:00,59.1,55.9,29.86,South,183,3.5,5.8,89,0.01,BKN,,0.03,178.0,WeatherDisplay:10.37,2013-06-24 23:45:00,
2013-06-24 16:51:00,58.9,55.4,29.86,WNW,296,3.0,6.9,88,0.01,BKN,,0.03,167.0,WeatherDisplay:10.37,2013-06-24 23:51:00,
2013-06-24 16:56:00,58.8,55.3,29.85,South,180,8.6,15.0,88,0.01,BKN,,0.03,190.0,WeatherDisplay:10.37,2013-06-24 23:56:00,
2013-06-24 17:02:00,58.6,54.7,29.85,SSW,195,5.4,8.1,87,0.01,BKN,,0.03,151.0,WeatherDisplay:10.37,2013-06-25 00:02:00,
2013-06-24 17:07:00,58.5,55.0,29.85,SE,129,5.8,11.5,88,0.01,BKN,,0.03,176.0,WeatherDisplay:10.37,2013-06-25 00:07:00,
2013-06-24 17:12:00,58.4,54.9,29.85,SSW,206,9.3,12.7,88,0.01,BKN,,0.03,163.0,WeatherDisplay:10.37,2013-06-25 00:12:00,
2013-06-24 17:17:00,58.5,55.0,29.85,South,176,4.0,6.9,88,0.01,BKN,,0.03,181.0,WeatherDisplay:10.37,2013-06-25 00:17:00,
2013-06-24 17:22:00,58.4,54.9,29.85,South,171,7.7,11.5,88,0.01,BKN,,0.03,171.0,WeatherDisplay:10.37,2013-06-25 00:22:00,
2013-06-24 17:27:00,58.4,54.9,29.85,South,187,10.0,12.7,88,0.00,BKN,,0.03,158.0,WeatherDisplay:10.37,2013-06-25 00:27:00,
2013-06-24 17:32:00,58.4,54.9,29.85,SSW,203,6.8,10.4,88,0.00,BKN,,0.03,165.0,WeatherDisplay:10.37,2013-06-25 00:32:00,
2013-06-24 17:37:00,58.6,55.1,29.85,SSW,196,11.2,20.7,88,0.00,BKN,,0.03,156.0,WeatherDisplay:10.37,2013-06-25 00:37:00,
2013-06-24 17:42:00,58.7,55.2,29.85,SSW,201,5.4,8.1,88,0.00,BKN,,0.03,123.0,WeatherDisplay:10.37,2013-06-25 00:42:00,
2013-06-24 17:47:00,58.7,55.2,29.85,South,183,11.7,19.0,88,0.00,BKN,,0.03,105.0,WeatherDisplay:10.37,2013-06-25 00:47:00,
2013-06-24 17:52:00,58.8,55.3,29.85,South,188,12.3,19.6,88,0.00,BKN,,0.03,91.0,WeatherDisplay:10.37,2013-06-25 00:52:00,
2013-06-24 17:57:00,58.9,55.4,29.85,South,176,6.9,9.2,88,0.00,BKN,,0.03,104.0,WeatherDisplay:10.37,2013-06-25 00:57:00,
2013-06-24 18:03:00,59.0,55.4,29.85,SSW,199,7.6,11.5,88,0.00,BKN,,0.03,107.0,WeatherDisplay:10.37,2013-06-25 01:03:00,
2013-06-24 18:08:00,58.9,55.4,29.85,South,172,6.6,9.2,88,0.00,BKN,,0.03,93.0,WeatherDisplay:10.37,2013-06-25 01:08:00,
2013-06-24 18:14:00,58.8,54.9,29.84,South,182,6.6,11.5,87,0.00,BKN,,0.03,86.0,WeatherDisplay:10.37,2013-06-25 01:14:00,
2013-06-24 18:19:00,58.7,55.2,29.84,SW,214,7.8,8.1,88,0.00,BKN,,0.03,77.0,WeatherDisplay:10.37,2013-06-25 01:19:00,
2013-06-24 18:25:00,58.6,55.1,29.84,South,184,11.5,16.1,88,0.00,BKN,,0.03,93.0,WeatherDisplay:10.37,2013-06-25 01:25:00,
2013-06-24 18:30:00,58.7,55.2,29.85,South,190,7.4,12.7,88,0.00,BKN,,0.03,67.0,WeatherDisplay:10.37,2013-06-25 01:30:00,
2013-06-24 18:36:00,58.8,55.3,29.85,SSW,209,7.9,8.1,88,0.01,RA,,0.04,56.0,WeatherDisplay:10.37,2013-06-25 01:36:00,
2013-06-24 18:41:00,58.8,55.3,29.85,South,179,6.3,10.4,88,0.01,RA,,0.04,69.0,WeatherDisplay:10.37,2013-06-25 01:41:00,
2013-06-24 18:46:00,58.8,55.3,29.84,SW,214,7.3,11.5,88,0.01,BKN,,0.04,63.0,WeatherDisplay:10.37,2013-06-25 01:46:00,
2013-06-24 18:54:00,58.5,55.0,29.85,SSW,200,8.5,12.7,88,0.01,BKN,,0.04,44.0,WeatherDisplay:10.37,2013-06-25 01:54:00,
2013-06-24 19:00:00,58.3,55.1,29.85,SSW,195,6.8,8.1,89,0.01,BKN,,0.04,23.0,WeatherDisplay:10.37,2013-06-25 02:00:00,
2013-06-24 19:05:00,58.2,55.0,29.85,South,186,4.9,11.5,89,0.01,BKN,,0.04,25.0,WeatherDisplay:10.37,2013-06-25 02:05:00,
2013-06-24 19:10:00,58.1,54.9,29.85,SSW,196,8.6,12.7,89,0.01,BKN,,0.04,51.0,WeatherDisplay:10.37,2013-06-25 02:10:00,
2013-06-24 19:15:00,57.9,54.7,29.86,South,186,7.4,11.5,89,0.01,BKN,,0.04,30.0,WeatherDisplay:10.37,2013-06-25 02:15:00,
2013-06-24 19:21:00,57.8,54.6,29.86,South,189,7.1,11.5,89,0.01,BKN,,0.04,19.0,WeatherDisplay:10.37,2013-06-25 02:21:00,
2013-06-24 19:27:00,57.6,54.7,29.86,South,186,6.2,10.4,90,0.01,BKN,,0.04,21.0,WeatherDisplay:10.37,2013-06-25 02:27:00,
2013-06-24 19:33:00,57.5,54.6,29.86,SSW,196,6.9,11.5,90,0.02,RA,,0.05,18.0,WeatherDisplay:10.37,2013-06-25 02:33:00,
2013-06-24 19:38:00,57.3,54.4,29.86,South,182,9.0,13.0,90,0.01,RA,,0.05,16.0,WeatherDisplay:10.37,2013-06-25 02:38:00,
2013-06-24 19:43:00,57.1,54.2,29.86,SSW,200,4.5,10.4,90,0.01,BKN,,0.05,12.0,WeatherDisplay:10.37,2013-06-25 02:43:00,
2013-06-24 19:49:00,57.3,54.4,29.86,SSE,165,6.0,9.2,90,0.01,BKN,,0.05,11.0,WeatherDisplay:10.37,2013-06-25 02:49:00,
2013-06-24 19:54:00,57.3,54.4,29.86,SSW,192,3.6,5.8,90,0.01,BKN,,0.05,11.0,WeatherDisplay:10.37,2013-06-25 02:54:00,
2013-06-24 19:59:00,57.5,54.9,29.86,South,183,4.9,8.0,91,0.01,BKN,,0.05,7.0,WeatherDisplay:10.37,2013-06-25 02:59:00,
2013-06-24 20:04:00,57.6,54.7,29.86,SSE,165,5.6,8.1,90,0.01,,,0.05,7.0,WeatherDisplay:10.37,2013-06-25 03:04:00,
2013-06-24 20:11:00,57.5,54.6,29.86,South,190,6.2,8.1,90,0.01,,,0.05,5.0,WeatherDisplay:10.37,2013-06-25 03:11:00,
2013-06-24 20:16:00,57.4,54.8,29.86,SSW,202,5.4,9.2,91,0.01,,,0.05,0.0,WeatherDisplay:10.37,2013-06-25 03:16:00,
2013-06-24 20:23:00,57.4,54.8,29.86,SE,136,5.6,11.5,91,0.01,,,0.05,0.0,WeatherDisplay:10.37,2013-06-25 03:23:00,
2013-06-24 20:28:00,57.3,54.7,29.86,South,179,4.7,6.9,91,0.01,,,0.05,0.0,WeatherDisplay:10.37,2013-06-25 03:28:00,
2013-06-24 20:33:00,57.3,54.7,29.86,ESE,120,6.3,10.4,91,0.00,,,0.05,0.0,WeatherDisplay:10.37,2013-06-25 03:33:00,
2013-06-24 20:39:00,57.1,54.5,29.87,SSW,197,4.6,10.4,91,0.00,,,0.05,0.0,WeatherDisplay:10.37,2013-06-25 03:39:00,
2013-06-24 20:46:00,57.0,54.4,29.86,SSW,213,5.2,11.5,91,0.00,,,0.05,0.0,WeatherDisplay:10.37,2013-06-25 03:46:00,
2013-06-24 20:52:00,57.0,54.4,29.87,SSE,167,4.1,5.8,91,0.00,,,0.05,0.0,WeatherDisplay:10.37,2013-06-25 03:52:00,
2013-06-24 20:59:00,57.0,54.4,29.86,SSW,195,5.0,10.4,91,0.00,,,0.05,0.0,WeatherDisplay:10.37,2013-06-25 03:59:00,
2013-06-24 21:01:00,57.0,54.4,29.86,SSW,209,8.1,11.5,91,0.00,,,0.05,0.0,WeatherDisplay:10.37,2013-06-25 04:01:00,
2013-06-24 21:04:00,57.0,54.4,29.86,SSW,204,6.4,8.1,91,0.00,,,0.05,0.0,WeatherDisplay:10.37,2013-06-25 04:04:00,
2013-06-24 21:05:00,57.0,54.4,29.86,SSW,196,8.3,9.2,91,0.01,RA,,0.06,0.0,WeatherDisplay:10.37,2013-06-25 04:05:00,
2013-06-24 21:08:00,57.0,54.4,29.86,ESE,122,3.9,6.9,91,0.01,RA,,0.06,0.0,WeatherDisplay:10.37,2013-06-25 04:08:00,
2013-06-24 21:09:00,57.0,54.4,29.86,South,188,7.0,7.0,91,0.01,RA,,0.06,0.0,WeatherDisplay:10.37,2013-06-25 04:09:00,
2013-06-24 21:14:00,57.0,54.7,29.87,SW,236,5.0,8.0,92,0.01,,,0.06,0.0,WeatherDisplay:10.37,2013-06-25 04:14:00,
2013-06-24 21:19:00,57.0,54.7,29.87,SSW,195,6.2,9.2,92,0.01,,,0.06,0.0,WeatherDisplay:10.37,2013-06-25 04:19:00,
2013-06-24 21:24:00,57.0,54.7,29.87,SSW,203,5.4,9.2,92,0.01,,,0.06,0.0,WeatherDisplay:10.37,2013-06-25 04:24:00,
2013-06-24 21:29:00,57.0,54.7,29.87,SSW,194,6.7,6.9,92,0.01,,,0.06,0.0,WeatherDisplay:10.37,2013-06-25 04:29:00,
2013-06-24 21:34:00,57.0,54.7,29.87,South,173,3.5,4.0,92,0.01,,,0.06,0.0,WeatherDisplay:10.37,2013-06-25 04:34:00,
2013-06-24 21:39:00,57.0,54.7,29.87,SSW,196,6.1,11.5,92,0.01,,,0.06,0.0,WeatherDisplay:10.37,2013-06-25 04:39:00,
2013-06-24 21:44:00,57.0,54.7,29.87,South,175,5.7,9.2,92,0.01,,,0.06,0.0,WeatherDisplay:10.37,2013-06-25 04:44:00,
2013-06-24 21:49:00,57.0,54.7,29.87,SW,216,5.6,9.2,92,0.01,,,0.06,0.0,WeatherDisplay:10.37,2013-06-25 04:49:00,
2013-06-24 21:54:00,57.1,54.8,29.87,SSW,207,9.4,13.8,92,0.01,,,0.06,0.0,WeatherDisplay:10.37,2013-06-25 04:54:00,
2013-06-24 21:59:00,57.3,55.0,29.87,SSE,162,7.7,11.5,92,0.01,,,0.06,0.0,WeatherDisplay:10.37,2013-06-25 04:59:00,
2013-06-24 22:04:00,57.4,55.1,29.87,South,188,7.7,12.7,92,0.00,,,0.06,0.0,WeatherDisplay:10.37,2013-06-25 05:04:00,
2013-06-24 22:09:00,57.3,54.7,29.87,South,179,8.8,12.7,91,0.00,,,0.06,0.0,WeatherDisplay:10.37,2013-06-25 05:09:00,
2013-06-24 22:14:00,57.3,55.0,29.87,SSW,207,6.2,13.8,92,0.00,,,0.06,0.0,WeatherDisplay:10.37,2013-06-25 05:14:00,
2013-06-24 22:19:00,57.2,54.6,29.87,South,186,8.4,11.5,91,0.00,,,0.06,0.0,WeatherDisplay:10.37,2013-06-25 05:19:00,
2013-06-24 22:24:00,57.2,54.6,29.88,South,180,6.4,10.4,91,0.00,,,0.06,0.0,WeatherDisplay:10.37,2013-06-25 05:24:00,
2013-06-24 22:29:00,57.1,54.5,29.88,South,186,8.1,12.7,91,0.00,,,0.06,0.0,WeatherDisplay:10.37,2013-06-25 05:29:00,
2013-06-24 22:34:00,57.0,54.7,29.87,South,182,7.3,9.2,92,0.00,,,0.06,0.0,WeatherDisplay:10.37,2013-06-25 05:34:00,
2013-06-24 22:39:00,57.0,54.7,29.87,South,181,6.6,19.6,92,0.00,,,0.06,0.0,WeatherDisplay:10.37,2013-06-25 05:39:00,
2013-06-24 22:44:00,57.0,54.7,29.87,SSW,208,12.5,18.4,92,0.00,,,0.06,0.0,WeatherDisplay:10.37,2013-06-25 05:44:00,
2013-06-24 22:49:00,57.0,54.7,29.87,South,188,10.1,11.5,92,0.00,,,0.06,0.0,WeatherDisplay:10.37,2013-06-25 05:49:00,
2013-06-24 22:50:00,57.0,54.7,29.87,South,190,8.0,11.5,92,0.00,,,0.06,0.0,WeatherDisplay:10.37,2013-06-25 05:50:00,
2013-06-24 22:55:00,57.0,54.7,29.87,SSW,198,11.5,13.8,92,0.00,,,0.06,0.0,WeatherDisplay:10.37,2013-06-25 05:55:00,
2013-06-24 23:00:00,57.0,54.7,29.87,SW,222,12.0,12.0,92,0.00,,,0.06,0.0,WeatherDisplay:10.37,2013-06-25 06:00:00,
2013-06-24 23:05:00,57.1,54.8,29.88,South,191,7.8,12.7,92,0.00,,,0.06,0.0,WeatherDisplay:10.37,2013-06-25 06:05:00,
2013-06-24 23:10:00,57.1,54.8,29.88,SSW,192,10.9,18.4,92,0.00,,,0.06,0.0,WeatherDisplay:10.37,2013-06-25 06:10:00,
2013-06-24 23:15:00,57.2,54.9,29.87,SSW,193,9.3,11.5,92,0.00,,,0.06,0.0,WeatherDisplay:10.37,2013-06-25 06:15:00,
2013-06-24 23:20:00,57.1,54.8,29.88,South,186,9.8,12.7,92,0.00,,,0.06,0.0,WeatherDisplay:10.37,2013-06-25 06:20:00,
2013-06-24 23:25:00,57.1,54.8,29.88,SSW,197,8.1,11.5,92,0.00,,,0.06,0.0,WeatherDisplay:10.37,2013-06-25 06:25:00,
2013-06-24 23:31:00,57.1,54.8,29.88,South,190,4.4,5.8,92,0.01,RA,,0.07,0.0,WeatherDisplay:10.37,2013-06-25 06:31:00,
2013-06-24 23:36:00,57.1,54.8,29.88,SSW,194,7.9,10.4,92,0.01,RA,,0.07,0.0,WeatherDisplay:10.37,2013-06-25 06:36:00,
2013-06-24 23:41:00,57.0,54.7,29.88,SSW,204,9.3,12.7,92,0.01,,,0.07,0.0,WeatherDisplay:10.37,2013-06-25 06:41:00,
2013-06-24 23:46:00,57.0,54.7,29.88,South,181,7.0,9.2,92,0.01,,,0.07,0.0,WeatherDisplay:10.37,2013-06-25 06:46:00,
2013-06-24 23:51:00,57.0,54.7,29.88,South,173,7.4,11.5,92,0.01,,,0.07,0.0,WeatherDisplay:10.37,2013-06-25 06:51:00,
2013-06-24 23:56:00,57.0,54.7,29.88,South,176,11.1,13.8,92,0.01,,,0.07,0.0,WeatherDisplay:10.37,2013-06-25 06:56:00,